»·PEaware :: N112LW O24-KDVO

N112LW :: O24-KDVO

FLIGHT INFORMATION

Flight Status: Arrived
Operator: Privately registered:
United States
More flights under this callsign
Pilot: Lee W. (44)
Aircraft: PIPER PA-24 COMMANCHE
(PA24)
More flights by this aircraft type
Origin: O24 Lee Vining
United States
Destination: KDVO Gnoss
United States
More flights between these airports :: More routes between these airports
Route: BIH FRA MO CC
File this flight plan on PilotEdge
Remarks:
Altitude:
(Current/Filed)
12,000ft
Speed:
(Current/Filed)
140kts
Departed: 18-Feb-12 04:17 AM
Arrived: 18-Feb-12 05:51 AM
Distance/Time
Traveled:
163nm/1:34
Distance/Time
To Go:
Arrived

Flight Plot

Page will automatically refresh every two minutes.


Map Options




Map Legend


Flown Route
Filed Route
Departure Airport
Arrival Airport
Navaid (VOR, NDB)
Fix

Horizontal Profiles

Position Reports

Time Latitude Longitude Heading Altitude Ground
Speed
18-Feb-12 04:12 37.953902 -119.105104 73 6804ft 0kts
18-Feb-12 04:13 37.953902 -119.105104 73 6804ft 0kts
18-Feb-12 04:14 37.954043 -119.104835 8 6804ft 8kts
18-Feb-12 04:16 37.968293 -119.108674 344 7097ft 107kts
18-Feb-12 04:17 37.982834 -119.082730 134 7821ft 146kts
18-Feb-12 04:18 37.945692 -119.065511 163 8706ft 143kts
18-Feb-12 04:19 37.911086 -119.043091 142 9611ft 144kts
18-Feb-12 04:20 37.881380 -119.009441 136 10616ft 143kts
18-Feb-12 04:21 37.847490 -118.971038 166 11599ft 137kts
18-Feb-12 04:22 37.816805 -118.956041 151 12000ft 158kts
18-Feb-12 04:23 37.778399 -118.923356 144 11983ft 168kts
18-Feb-12 04:24 37.741160 -118.922955 224 12001ft 152kts
18-Feb-12 04:25 37.709277 -118.958051 223 11987ft 152kts
18-Feb-12 04:26 37.676454 -118.993262 223 11975ft 156kts
18-Feb-12 04:27 37.642710 -119.029189 222 12007ft 156kts
18-Feb-12 04:28 37.612274 -119.061457 223 12542ft 133kts
18-Feb-12 04:29 37.585521 -119.089814 224 13081ft 122kts
18-Feb-12 04:30 37.560363 -119.116456 224 13512ft 114kts
18-Feb-12 04:31 37.536669 -119.141536 224 13948ft 112kts
18-Feb-12 04:32 37.509656 -119.170197 223 13964ft 137kts
18-Feb-12 04:33 37.479363 -119.202204 223 13961ft 146kts
18-Feb-12 04:34 37.447721 -119.235589 223 13961ft 149kts
18-Feb-12 04:35 37.415760 -119.269276 223 13960ft 150kts
18-Feb-12 04:36 37.383638 -119.303095 223 13960ft 150kts
18-Feb-12 04:37 37.352647 -119.335690 223 13959ft 150kts
18-Feb-12 04:38 37.320615 -119.369343 223 13959ft 150kts
18-Feb-12 04:39 37.288568 -119.402971 223 13959ft 149kts
18-Feb-12 04:40 37.256874 -119.436248 221 14009ft 150kts
18-Feb-12 04:41 37.224563 -119.470070 220 14009ft 152kts
18-Feb-12 04:42 37.191927 -119.504175 220 14009ft 152kts
18-Feb-12 04:43 37.159521 -119.538008 219 14009ft 152kts
18-Feb-12 04:44 37.126991 -119.571937 219 14009ft 152kts
18-Feb-12 04:45 37.108761 -119.612819 300 14012ft 150kts
18-Feb-12 04:46 37.128154 -119.659377 296 14009ft 151kts
18-Feb-12 04:47 37.146637 -119.707068 295 14009ft 151kts
18-Feb-12 04:48 37.165016 -119.755384 295 13833ft 162kts
18-Feb-12 04:49 37.185240 -119.808845 295 13250ft 175kts
18-Feb-12 04:50 37.206128 -119.864140 294 12655ft 175kts
18-Feb-12 04:51 37.227038 -119.919704 293 12058ft 178kts
18-Feb-12 04:52 37.247399 -119.974013 294 11998ft 166kts
18-Feb-12 04:53 37.267024 -120.026378 295 12000ft 165kts
18-Feb-12 04:54 37.286456 -120.078256 296 12000ft 164kts
18-Feb-12 04:55 37.305891 -120.130220 296 12000ft 164kts
18-Feb-12 04:56 37.325251 -120.182081 297 12000ft 164kts
18-Feb-12 04:57 37.344611 -120.234033 297 12000ft 164kts
18-Feb-12 04:58 37.364166 -120.286543 296 11990ft 164kts
18-Feb-12 04:59 37.383430 -120.338427 295 11991ft 164kts
18-Feb-12 05:00 37.399576 -120.381998 295 11991ft 164kts
18-Feb-12 05:01 37.418846 -120.434075 295 11991ft 164kts
18-Feb-12 05:02 37.438184 -120.486278 293 11981ft 162kts
18-Feb-12 05:03 37.456795 -120.536913 294 11978ft 156kts
18-Feb-12 05:04 37.473393 -120.582504 294 11979ft 155kts
18-Feb-12 05:05 37.491385 -120.631603 295 11979ft 155kts
18-Feb-12 05:06 37.509505 -120.680987 294 11979ft 156kts
18-Feb-12 05:07 37.527759 -120.730791 294 11979ft 156kts
18-Feb-12 05:08 37.545901 -120.780374 294 11979ft 156kts
18-Feb-12 05:09 37.564083 -120.830036 293 11979ft 155kts
18-Feb-12 05:10 37.583144 -120.879586 296 11980ft 158kts
18-Feb-12 05:11 37.603604 -120.929539 297 11980ft 161kts
18-Feb-12 05:12 37.624316 -120.980237 297 11980ft 162kts
18-Feb-12 05:13 37.644688 -121.030192 298 11980ft 163kts
18-Feb-12 05:14 37.665358 -121.080959 298 11980ft 163kts
18-Feb-12 05:15 37.686072 -121.131929 298 11980ft 163kts
18-Feb-12 05:16 37.706750 -121.182907 298 11980ft 163kts
18-Feb-12 05:17 37.727376 -121.233846 299 11980ft 163kts
18-Feb-12 05:18 37.748054 -121.284983 299 11981ft 163kts
18-Feb-12 05:19 37.768795 -121.336353 299 11981ft 164kts
18-Feb-12 05:20 37.789514 -121.387759 299 11981ft 164kts
18-Feb-12 05:21 37.810197 -121.439163 299 11981ft 164kts
18-Feb-12 05:22 37.830915 -121.490738 299 11981ft 164kts
18-Feb-12 05:24 37.864641 -121.575324 298 11979ft 164kts
18-Feb-12 05:25 37.892112 -121.644013 293 12000ft 164kts
18-Feb-12 05:26 37.912497 -121.695250 292 11999ft 160kts
18-Feb-12 05:27 37.932245 -121.744926 292 11998ft 155kts
18-Feb-12 05:28 37.951413 -121.793156 292 11998ft 151kts
18-Feb-12 05:29 37.970188 -121.840438 292 11998ft 149kts
18-Feb-12 05:30 37.988683 -121.887070 292 11994ft 148kts
18-Feb-12 05:31 38.005290 -121.928657 289 11935ft 112kts
18-Feb-12 05:32 38.019980 -121.966098 289 11242ft 124kts
18-Feb-12 05:33 38.036185 -122.007260 290 10343ft 139kts
18-Feb-12 05:34 38.051484 -122.052363 277 9351ft 140kts
18-Feb-12 05:35 38.075342 -122.093631 304 8349ft 147kts
18-Feb-12 05:36 38.100430 -122.133229 304 7368ft 147kts
18-Feb-12 05:37 38.121949 -122.176011 297 6372ft 144kts
18-Feb-12 05:38 38.142869 -122.218943 297 5403ft 143kts
18-Feb-12 05:39 38.162366 -122.261600 297 4412ft 137kts
18-Feb-12 05:40 38.179817 -122.304182 297 3413ft 137kts
18-Feb-12 05:41 38.196908 -122.346957 297 2514ft 131kts
18-Feb-12 05:43 38.209799 -122.428783 280 1517ft 123kts
18-Feb-12 05:44 38.214133 -122.461185 280 1384ft 109kts
18-Feb-12 05:45 38.215325 -122.500400 270 1015ft 108kts
18-Feb-12 05:46 38.206154 -122.531914 238 995ft 94kts
18-Feb-12 05:47 38.192556 -122.558511 237 996ft 86kts
18-Feb-12 05:48 38.174774 -122.574776 183 749ft 86kts
18-Feb-12 05:49 38.154094 -122.564049 154 208ft 73kts
18-Feb-12 05:50 38.143814 -122.556943 147 4ft 13kts
18-Feb-12 05:51 38.141096 -122.556439 210 4ft 0kts

Navigation Log

Ident Type
Flight plan parsing failed, navigation log unavailable